Terminal Aerodrome Forecast
Issued by NWS Sterling, VA

Current Version | Previous Version | Graphics & Text | Print | Product List | Glossary On
Versions: 1 2 3 4 5 6 7 8 9 10 11 12 13 14 15 16 17 18 19 20 21
000
FTUS41 KLWX 190536
TAFIAD
TAF
KIAD 190536Z 1906/2012 35006KT P6SM FEW020
     FM190800 36005KT 5SM BR SCT025
     FM190900 36005KT 5SM BR BKN015
     FM191200 36008KT 5SM BR BKN008
     FM191600 36009G14KT P6SM SCT025
     FM200600 32005KT P6SM SKC=

USA.gov is the U.S. government's official web portal to all federal, state and local government web resources and services.